sensor_id;sensor_type;location;lat;lon;timestamp;temperature;humidity
70706;DHT22;59320;52.316;10.870;2023-01-26T00:01:54;6.10;77.50
70706;DHT22;59320;52.316;10.870;2023-01-26T00:04:21;6.10;77.50
70706;DHT22;59320;52.316;10.870;2023-01-26T00:06:48;6.00;77.40
70706;DHT22;59320;52.316;10.870;2023-01-26T00:09:15;6.10;77.50
70706;DHT22;59320;52.316;10.870;2023-01-26T00:11:42;6.10;77.40
70706;DHT22;59320;52.316;10.870;2023-01-26T00:14:09;6.10;77.30
70706;DHT22;59320;52.316;10.870;2023-01-26T00:16:36;6.00;77.30
70706;DHT22;59320;52.316;10.870;2023-01-26T00:19:05;6.10;77.40
70706;DHT22;59320;52.316;10.870;2023-01-26T00:21:32;6.10;77.30
70706;DHT22;59320;52.316;10.870;2023-01-26T00:23:59;6.10;77.30
70706;DHT22;59320;52.316;10.870;2023-01-26T00:26:27;6.10;77.30
70706;DHT22;59320;52.316;10.870;2023-01-26T00:28:54;6.10;77.20
70706;DHT22;59320;52.316;10.870;2023-01-26T00:31:23;6.00;77.10
70706;DHT22;59320;52.316;10.870;2023-01-26T00:33:52;6.00;77.20
70706;DHT22;59320;52.316;10.870;2023-01-26T00:36:21;6.10;77.10
70706;DHT22;59320;52.316;10.870;2023-01-26T00:38:48;6.10;77.10
70706;DHT22;59320;52.316;10.870;2023-01-26T00:41:15;6.00;76.90
70706;DHT22;59320;52.316;10.870;2023-01-26T00:43:56;6.00;76.90
70706;DHT22;59320;52.316;10.870;2023-01-26T00:46:23;6.10;76.90
70706;DHT22;59320;52.316;10.870;2023-01-26T00:48:50;6.00;76.90
70706;DHT22;59320;52.316;10.870;2023-01-26T00:51:17;6.00;76.90
70706;DHT22;59320;52.316;10.870;2023-01-26T00:53:46;6.00;77.00
70706;DHT22;59320;52.316;10.870;2023-01-26T00:56:13;6.00;76.90
70706;DHT22;59320;52.316;10.870;2023-01-26T00:58:40;6.00;77.00
70706;DHT22;59320;52.316;10.870;2023-01-26T01:01:10;6.00;76.90
70706;DHT22;59320;52.316;10.870;2023-01-26T01:03:41;6.00;76.90
70706;DHT22;59320;52.316;10.870;2023-01-26T01:06:08;6.00;76.80
70706;DHT22;59320;52.316;10.870;2023-01-26T01:08:35;6.00;76.80
70706;DHT22;59320;52.316;10.870;2023-01-26T01:11:05;6.00;76.80
70706;DHT22;59320;52.316;10.870;2023-01-26T01:13:33;6.00;76.80
70706;DHT22;59320;52.316;10.870;2023-01-26T01:16:00;6.00;76.90
70706;DHT22;59320;52.316;10.870;2023-01-26T01:18:30;6.00;76.80
70706;DHT22;59320;52.316;10.870;2023-01-26T01:20:57;6.00;76.80
70706;DHT22;59320;52.316;10.870;2023-01-26T01:23:26;6.00;76.80
70706;DHT22;59320;52.316;10.870;2023-01-26T01:25:59;6.00;76.90
70706;DHT22;59320;52.316;10.870;2023-01-26T01:28:27;6.00;76.90
70706;DHT22;59320;52.316;10.870;2023-01-26T01:30:55;6.00;76.80
70706;DHT22;59320;52.316;10.870;2023-01-26T01:33:22;6.00;76.70
70706;DHT22;59320;52.316;10.870;2023-01-26T01:35:56;6.00;76.70
70706;DHT22;59320;52.316;10.870;2023-01-26T01:38:24;6.00;76.80
70706;DHT22;59320;52.316;10.870;2023-01-26T01:40:51;6.00;76.60
70706;DHT22;59320;52.316;10.870;2023-01-26T01:43:19;6.00;76.50
70706;DHT22;59320;52.316;10.870;2023-01-26T01:45:48;6.00;76.50
70706;DHT22;59320;52.316;10.870;2023-01-26T01:48:19;6.00;76.50
70706;DHT22;59320;52.316;10.870;2023-01-26T01:50:49;5.90;76.50
70706;DHT22;59320;52.316;10.870;2023-01-26T01:53:22;5.90;76.30
70706;DHT22;59320;52.316;10.870;2023-01-26T01:55:54;5.90;76.30
70706;DHT22;59320;52.316;10.870;2023-01-26T01:58:22;5.90;76.20
70706;DHT22;59320;52.316;10.870;2023-01-26T02:00:51;5.90;76.30
70706;DHT22;59320;52.316;10.870;2023-01-26T02:03:19;5.90;76.30
70706;DHT22;59320;52.316;10.870;2023-01-26T02:05:53;5.90;76.30
70706;DHT22;59320;52.316;10.870;2023-01-26T02:08:24;5.90;76.30
70706;DHT22;59320;52.316;10.870;2023-01-26T02:10:54;5.90;76.30
70706;DHT22;59320;52.316;10.870;2023-01-26T02:13:23;5.90;76.20
70706;DHT22;59320;52.316;10.870;2023-01-26T02:15:53;5.90;76.30
70706;DHT22;59320;52.316;10.870;2023-01-26T02:18:20;5.90;76.30
70706;DHT22;59320;52.316;10.870;2023-01-26T02:20:49;6.00;76.20
70706;DHT22;59320;52.316;10.870;2023-01-26T02:23:25;5.90;76.20
70706;DHT22;59320;52.316;10.870;2023-01-26T02:26:07;5.90;76.10
70706;DHT22;59320;52.316;10.870;2023-01-26T02:28:36;5.90;76.20
70706;DHT22;59320;52.316;10.870;2023-01-26T02:31:05;6.00;76.10
70706;DHT22;59320;52.316;10.870;2023-01-26T02:33:32;6.00;76.10
70706;DHT22;59320;52.316;10.870;2023-01-26T02:36:03;5.90;76.00
70706;DHT22;59320;52.316;10.870;2023-01-26T02:38:38;5.90;76.00
70706;DHT22;59320;52.316;10.870;2023-01-26T02:41:09;5.90;76.00
70706;DHT22;59320;52.316;10.870;2023-01-26T02:43:37;5.90;75.90
70706;DHT22;59320;52.316;10.870;2023-01-26T02:46:04;5.90;75.80
70706;DHT22;59320;52.316;10.870;2023-01-26T02:48:35;5.90;75.90
70706;DHT22;59320;52.316;10.870;2023-01-26T02:51:20;5.90;75.90
70706;DHT22;59320;52.316;10.870;2023-01-26T02:53:48;5.90;75.80
70706;DHT22;59320;52.316;10.870;2023-01-26T02:56:17;5.80;75.80
70706;DHT22;59320;52.316;10.870;2023-01-26T02:58:43;5.90;75.80
70706;DHT22;59320;52.316;10.870;2023-01-26T03:01:10;5.90;75.90
70706;DHT22;59320;52.316;10.870;2023-01-26T03:03:46;5.80;75.90
70706;DHT22;59320;52.316;10.870;2023-01-26T03:06:14;5.80;75.80
70706;DHT22;59320;52.316;10.870;2023-01-26T03:08:41;5.80;75.80
70706;DHT22;59320;52.316;10.870;2023-01-26T03:11:09;5.80;75.90
70706;DHT22;59320;52.316;10.870;2023-01-26T03:13:38;5.80;75.90
70706;DHT22;59320;52.316;10.870;2023-01-26T03:16:06;5.80;75.90
70706;DHT22;59320;52.316;10.870;2023-01-26T03:18:34;5.80;75.90
70706;DHT22;59320;52.316;10.870;2023-01-26T03:21:21;5.80;75.90
70706;DHT22;59320;52.316;10.870;2023-01-26T03:24:09;5.80;76.60
70706;DHT22;59320;52.316;10.870;2023-01-26T03:26:54;5.80;75.90
70706;DHT22;59320;52.316;10.870;2023-01-26T03:29:40;5.80;75.70
70706;DHT22;59320;52.316;10.870;2023-01-26T03:32:07;5.80;75.70
70706;DHT22;59320;52.316;10.870;2023-01-26T03:34:35;5.80;76.50
70706;DHT22;59320;52.316;10.870;2023-01-26T03:37:04;5.80;75.80
70706;DHT22;59320;52.316;10.870;2023-01-26T03:39:41;5.80;75.80
70706;DHT22;59320;52.316;10.870;2023-01-26T03:42:26;5.80;75.90
70706;DHT22;59320;52.316;10.870;2023-01-26T03:45:11;5.80;75.90
70706;DHT22;59320;52.316;10.870;2023-01-26T03:48:09;5.80;75.90
70706;DHT22;59320;52.316;10.870;2023-01-26T03:50:54;5.80;76.10
70706;DHT22;59320;52.316;10.870;2023-01-26T03:53:39;5.80;75.90
70706;DHT22;59320;52.316;10.870;2023-01-26T03:56:24;5.80;75.80
70706;DHT22;59320;52.316;10.870;2023-01-26T03:58:58;5.80;75.80
70706;DHT22;59320;52.316;10.870;2023-01-26T04:01:35;5.80;75.80
70706;DHT22;59320;52.316;10.870;2023-01-26T04:04:03;5.80;75.70
70706;DHT22;59320;52.316;10.870;2023-01-26T04:06:49;5.80;75.50
70706;DHT22;59320;52.316;10.870;2023-01-26T04:09:36;5.80;75.40
70706;DHT22;59320;52.316;10.870;2023-01-26T04:12:05;5.80;75.40
70706;DHT22;59320;52.316;10.870;2023-01-26T04:14:37;5.80;75.40
70706;DHT22;59320;52.316;10.870;2023-01-26T04:17:25;5.70;75.40
70706;DHT22;59320;52.316;10.870;2023-01-26T04:20:10;5.70;75.40
70706;DHT22;59320;52.316;10.870;2023-01-26T04:22:55;5.70;75.30
70706;DHT22;59320;52.316;10.870;2023-01-26T04:25:22;5.70;75.30
70706;DHT22;59320;52.316;10.870;2023-01-26T04:27:49;5.70;75.30
70706;DHT22;59320;52.316;10.870;2023-01-26T04:30:18;5.70;75.20
70706;DHT22;59320;52.316;10.870;2023-01-26T04:32:47;5.70;75.10
70706;DHT22;59320;52.316;10.870;2023-01-26T04:35:15;5.70;75.10
70706;DHT22;59320;52.316;10.870;2023-01-26T04:37:42;5.70;75.20
70706;DHT22;59320;52.316;10.870;2023-01-26T04:40:10;5.70;75.20
70706;DHT22;59320;52.316;10.870;2023-01-26T04:42:37;5.70;75.20
70706;DHT22;59320;52.316;10.870;2023-01-26T04:45:06;5.70;75.20
70706;DHT22;59320;52.316;10.870;2023-01-26T04:47:34;5.70;75.20
70706;DHT22;59320;52.316;10.870;2023-01-26T04:50:04;5.60;75.00
70706;DHT22;59320;52.316;10.870;2023-01-26T04:52:31;5.70;75.00
70706;DHT22;59320;52.316;10.870;2023-01-26T04:54:59;5.60;75.00
70706;DHT22;59320;52.316;10.870;2023-01-26T04:57:26;5.60;75.00
70706;DHT22;59320;52.316;10.870;2023-01-26T04:59:54;5.70;75.00
70706;DHT22;59320;52.316;10.870;2023-01-26T05:02:21;5.70;74.90
70706;DHT22;59320;52.316;10.870;2023-01-26T05:04:48;5.70;75.00
70706;DHT22;59320;52.316;10.870;2023-01-26T05:07:16;5.70;75.00
70706;DHT22;59320;52.316;10.870;2023-01-26T05:09:45;5.60;74.90
70706;DHT22;59320;52.316;10.870;2023-01-26T05:12:38;5.70;75.00
70706;DHT22;59320;52.316;10.870;2023-01-26T05:15:13;5.70;75.00
70706;DHT22;59320;52.316;10.870;2023-01-26T05:18:00;5.70;75.00
70706;DHT22;59320;52.316;10.870;2023-01-26T05:20:36;5.70;75.10
70706;DHT22;59320;52.316;10.870;2023-01-26T05:23:15;5.70;75.10
70706;DHT22;59320;52.316;10.870;2023-01-26T05:26:05;5.70;75.10
70706;DHT22;59320;52.316;10.870;2023-01-26T05:28:43;5.70;75.00
70706;DHT22;59320;52.316;10.870;2023-01-26T05:31:10;5.70;74.90
70706;DHT22;59320;52.316;10.870;2023-01-26T05:33:37;5.70;75.70
70706;DHT22;59320;52.316;10.870;2023-01-26T05:36:06;5.70;75.00
70706;DHT22;59320;52.316;10.870;2023-01-26T05:38:35;5.70;75.10
70706;DHT22;59320;52.316;10.870;2023-01-26T05:41:05;5.70;75.10
70706;DHT22;59320;52.316;10.870;2023-01-26T05:43:41;5.70;75.20
70706;DHT22;59320;52.316;10.870;2023-01-26T05:46:18;5.70;75.20
70706;DHT22;59320;52.316;10.870;2023-01-26T05:48:45;5.70;75.10
70706;DHT22;59320;52.316;10.870;2023-01-26T05:51:12;5.70;75.20
70706;DHT22;59320;52.316;10.870;2023-01-26T05:53:40;5.70;75.20
70706;DHT22;59320;52.316;10.870;2023-01-26T05:56:08;5.70;75.20
70706;DHT22;59320;52.316;10.870;2023-01-26T05:58:39;5.70;75.20
70706;DHT22;59320;52.316;10.870;2023-01-26T06:01:06;5.70;75.20
70706;DHT22;59320;52.316;10.870;2023-01-26T06:03:42;5.70;75.30
70706;DHT22;59320;52.316;10.870;2023-01-26T06:06:10;5.70;75.10
70706;DHT22;59320;52.316;10.870;2023-01-26T06:08:48;5.70;75.20
70706;DHT22;59320;52.316;10.870;2023-01-26T06:11:31;5.70;75.10
70706;DHT22;59320;52.316;10.870;2023-01-26T06:14:07;5.70;75.00
70706;DHT22;59320;52.316;10.870;2023-01-26T06:16:34;5.70;75.00
70706;DHT22;59320;52.316;10.870;2023-01-26T06:19:01;5.80;75.10
70706;DHT22;59320;52.316;10.870;2023-01-26T06:21:29;5.70;75.10
70706;DHT22;59320;52.316;10.870;2023-01-26T06:23:58;5.70;75.20
70706;DHT22;59320;52.316;10.870;2023-01-26T06:26:25;5.70;75.20
70706;DHT22;59320;52.316;10.870;2023-01-26T06:28:54;5.70;75.20
70706;DHT22;59320;52.316;10.870;2023-01-26T06:31:22;5.70;75.20
70706;DHT22;59320;52.316;10.870;2023-01-26T06:33:50;5.70;75.20
70706;DHT22;59320;52.316;10.870;2023-01-26T06:36:17;5.70;75.10
70706;DHT22;59320;52.316;10.870;2023-01-26T06:38:48;5.70;75.10
70706;DHT22;59320;52.316;10.870;2023-01-26T06:41:17;5.70;75.20
70706;DHT22;59320;52.316;10.870;2023-01-26T06:43:46;5.70;75.20
70706;DHT22;59320;52.316;10.870;2023-01-26T06:46:14;5.70;75.20
70706;DHT22;59320;52.316;10.870;2023-01-26T06:48:44;5.70;75.30
70706;DHT22;59320;52.316;10.870;2023-01-26T06:51:43;5.70;75.20
70706;DHT22;59320;52.316;10.870;2023-01-26T06:54:12;5.70;75.40
70706;DHT22;59320;52.316;10.870;2023-01-26T06:57:16;5.70;75.10
70706;DHT22;59320;52.316;10.870;2023-01-26T07:00:04;5.70;75.00
70706;DHT22;59320;52.316;10.870;2023-01-26T07:02:43;5.70;75.10
70706;DHT22;59320;52.316;10.870;2023-01-26T07:05:10;5.70;75.10
70706;DHT22;59320;52.316;10.870;2023-01-26T07:07:38;5.70;75.20
70706;DHT22;59320;52.316;10.870;2023-01-26T07:10:05;5.70;75.30
70706;DHT22;59320;52.316;10.870;2023-01-26T07:12:41;5.70;75.40
70706;DHT22;59320;52.316;10.870;2023-01-26T07:15:10;5.70;75.50
70706;DHT22;59320;52.316;10.870;2023-01-26T07:17:37;5.70;75.30
70706;DHT22;59320;52.316;10.870;2023-01-26T07:20:05;5.70;75.30
70706;DHT22;59320;52.316;10.870;2023-01-26T07:22:33;5.70;75.40
70706;DHT22;59320;52.316;10.870;2023-01-26T07:25:00;5.70;75.40
70706;DHT22;59320;52.316;10.870;2023-01-26T07:27:27;5.70;75.30
70706;DHT22;59320;52.316;10.870;2023-01-26T07:29:55;5.70;75.30
70706;DHT22;59320;52.316;10.870;2023-01-26T07:32:22;5.70;75.40
70706;DHT22;59320;52.316;10.870;2023-01-26T07:34:49;5.70;75.40
70706;DHT22;59320;52.316;10.870;2023-01-26T07:37:16;5.70;75.50
70706;DHT22;59320;52.316;10.870;2023-01-26T07:39:44;5.70;75.50
70706;DHT22;59320;52.316;10.870;2023-01-26T07:42:11;5.70;75.50
70706;DHT22;59320;52.316;10.870;2023-01-26T07:44:58;5.70;75.50
70706;DHT22;59320;52.316;10.870;2023-01-26T07:47:26;5.70;75.50
70706;DHT22;59320;52.316;10.870;2023-01-26T07:49:53;5.70;75.50
70706;DHT22;59320;52.316;10.870;2023-01-26T07:52:20;5.70;75.50
70706;DHT22;59320;52.316;10.870;2023-01-26T07:54:47;5.70;75.50
70706;DHT22;59320;52.316;10.870;2023-01-26T07:57:16;5.70;75.40
70706;DHT22;59320;52.316;10.870;2023-01-26T07:59:43;5.70;75.40
70706;DHT22;59320;52.316;10.870;2023-01-26T08:02:11;5.70;75.40
70706;DHT22;59320;52.316;10.870;2023-01-26T08:04:38;5.70;75.50
70706;DHT22;59320;52.316;10.870;2023-01-26T08:07:06;5.70;75.50
70706;DHT22;59320;52.316;10.870;2023-01-26T08:09:33;5.70;75.50
70706;DHT22;59320;52.316;10.870;2023-01-26T08:12:00;5.70;75.40
70706;DHT22;59320;52.316;10.870;2023-01-26T08:14:27;5.70;75.40
70706;DHT22;59320;52.316;10.870;2023-01-26T08:16:54;5.70;75.40
70706;DHT22;59320;52.316;10.870;2023-01-26T08:19:23;5.70;75.50
70706;DHT22;59320;52.316;10.870;2023-01-26T08:21:50;5.70;75.50
70706;DHT22;59320;52.316;10.870;2023-01-26T08:24:19;5.70;75.50
70706;DHT22;59320;52.316;10.870;2023-01-26T08:26:46;5.70;75.50
70706;DHT22;59320;52.316;10.870;2023-01-26T08:29:13;5.70;75.50
70706;DHT22;59320;52.316;10.870;2023-01-26T08:31:40;5.70;75.50
70706;DHT22;59320;52.316;10.870;2023-01-26T08:34:07;5.70;75.60
70706;DHT22;59320;52.316;10.870;2023-01-26T08:36:37;5.70;75.60
70706;DHT22;59320;52.316;10.870;2023-01-26T08:39:04;5.70;75.70
70706;DHT22;59320;52.316;10.870;2023-01-26T08:41:31;5.70;75.70
70706;DHT22;59320;52.316;10.870;2023-01-26T08:43:58;5.70;75.70
70706;DHT22;59320;52.316;10.870;2023-01-26T08:46:25;5.70;75.80
70706;DHT22;59320;52.316;10.870;2023-01-26T08:48:52;5.70;75.80
70706;DHT22;59320;52.316;10.870;2023-01-26T08:51:20;5.70;75.80
70706;DHT22;59320;52.316;10.870;2023-01-26T08:53:48;5.70;75.80
70706;DHT22;59320;52.316;10.870;2023-01-26T08:56:16;5.70;75.90
70706;DHT22;59320;52.316;10.870;2023-01-26T08:58:43;5.70;75.80
70706;DHT22;59320;52.316;10.870;2023-01-26T09:01:12;5.70;75.90
70706;DHT22;59320;52.316;10.870;2023-01-26T09:03:40;5.70;76.00
70706;DHT22;59320;52.316;10.870;2023-01-26T09:06:08;5.70;75.90
70706;DHT22;59320;52.316;10.870;2023-01-26T09:08:36;5.70;75.90
70706;DHT22;59320;52.316;10.870;2023-01-26T09:11:06;5.70;75.90
70706;DHT22;59320;52.316;10.870;2023-01-26T09:13:34;5.70;76.00
70706;DHT22;59320;52.316;10.870;2023-01-26T09:16:02;5.70;76.00
70706;DHT22;59320;52.316;10.870;2023-01-26T09:18:30;5.70;76.00
70706;DHT22;59320;52.316;10.870;2023-01-26T09:21:02;5.70;76.00
70706;DHT22;59320;52.316;10.870;2023-01-26T09:23:30;5.70;76.00
70706;DHT22;59320;52.316;10.870;2023-01-26T09:25:57;5.70;76.00
70706;DHT22;59320;52.316;10.870;2023-01-26T09:28:26;5.70;76.00
70706;DHT22;59320;52.316;10.870;2023-01-26T09:30:53;5.70;75.90
70706;DHT22;59320;52.316;10.870;2023-01-26T09:33:20;5.70;76.00
70706;DHT22;59320;52.316;10.870;2023-01-26T09:35:47;5.70;75.90
70706;DHT22;59320;52.316;10.870;2023-01-26T09:38:14;5.70;76.00
70706;DHT22;59320;52.316;10.870;2023-01-26T09:40:47;5.70;75.90
70706;DHT22;59320;52.316;10.870;2023-01-26T09:43:27;5.70;76.10
70706;DHT22;59320;52.316;10.870;2023-01-26T09:46:02;5.70;76.10
70706;DHT22;59320;52.316;10.870;2023-01-26T09:48:38;5.70;76.20
70706;DHT22;59320;52.316;10.870;2023-01-26T09:51:10;5.70;76.10
70706;DHT22;59320;52.316;10.870;2023-01-26T09:53:43;5.70;76.00
70706;DHT22;59320;52.316;10.870;2023-01-26T09:56:15;5.70;76.10
70706;DHT22;59320;52.316;10.870;2023-01-26T09:58:50;5.70;76.20
70706;DHT22;59320;52.316;10.870;2023-01-26T10:01:25;5.70;76.20
70706;DHT22;59320;52.316;10.870;2023-01-26T10:04:00;5.70;76.10
70706;DHT22;59320;52.316;10.870;2023-01-26T10:06:30;5.70;76.20
70706;DHT22;59320;52.316;10.870;2023-01-26T10:09:23;5.70;76.10
70706;DHT22;59320;52.316;10.870;2023-01-26T10:11:54;5.70;76.10
70706;DHT22;59320;52.316;10.870;2023-01-26T10:14:30;5.70;76.20
70706;DHT22;59320;52.316;10.870;2023-01-26T10:16:58;5.70;76.30
70706;DHT22;59320;52.316;10.870;2023-01-26T10:19:32;5.70;76.30
70706;DHT22;59320;52.316;10.870;2023-01-26T10:22:05;5.70;76.30
70706;DHT22;59320;52.316;10.870;2023-01-26T10:24:34;5.80;76.20
70706;DHT22;59320;52.316;10.870;2023-01-26T10:27:01;5.70;76.10
70706;DHT22;59320;52.316;10.870;2023-01-26T10:29:29;5.80;76.20
70706;DHT22;59320;52.316;10.870;2023-01-26T10:31:56;5.80;76.20
70706;DHT22;59320;52.316;10.870;2023-01-26T10:34:25;5.80;76.20
70706;DHT22;59320;52.316;10.870;2023-01-26T10:36:57;5.70;76.20
70706;DHT22;59320;52.316;10.870;2023-01-26T10:39:27;5.70;76.30
70706;DHT22;59320;52.316;10.870;2023-01-26T10:41:56;5.70;76.20
70706;DHT22;59320;52.316;10.870;2023-01-26T10:44:31;5.70;76.30
70706;DHT22;59320;52.316;10.870;2023-01-26T10:47:04;5.70;76.40
70706;DHT22;59320;52.316;10.870;2023-01-26T10:49:31;5.70;76.40
70706;DHT22;59320;52.316;10.870;2023-01-26T10:52:07;5.70;76.40
70706;DHT22;59320;52.316;10.870;2023-01-26T10:54:34;5.70;76.50
70706;DHT22;59320;52.316;10.870;2023-01-26T10:57:04;5.70;77.20
70706;DHT22;59320;52.316;10.870;2023-01-26T10:59:36;5.70;76.50
70706;DHT22;59320;52.316;10.870;2023-01-26T11:02:26;5.70;76.50
70706;DHT22;59320;52.316;10.870;2023-01-26T11:05:14;5.70;76.50
70706;DHT22;59320;52.316;10.870;2023-01-26T11:07:42;5.70;76.50
70706;DHT22;59320;52.316;10.870;2023-01-26T11:10:22;5.80;76.50
70706;DHT22;59320;52.316;10.870;2023-01-26T11:12:50;5.70;76.50
70706;DHT22;59320;52.316;10.870;2023-01-26T11:15:22;5.80;76.40
70706;DHT22;59320;52.316;10.870;2023-01-26T11:17:57;5.80;76.50
70706;DHT22;59320;52.316;10.870;2023-01-26T11:20:45;5.70;76.50
70706;DHT22;59320;52.316;10.870;2023-01-26T11:23:21;5.80;76.60
70706;DHT22;59320;52.316;10.870;2023-01-26T11:26:08;5.80;76.60
70706;DHT22;59320;52.316;10.870;2023-01-26T11:28:49;5.70;76.70
70706;DHT22;59320;52.316;10.870;2023-01-26T11:31:30;5.70;76.60
70706;DHT22;59320;52.316;10.870;2023-01-26T11:34:09;5.80;76.60
70706;DHT22;59320;52.316;10.870;2023-01-26T11:36:47;5.70;76.60
70706;DHT22;59320;52.316;10.870;2023-01-26T11:39:22;5.80;76.70
70706;DHT22;59320;52.316;10.870;2023-01-26T11:42:00;5.70;77.40
70706;DHT22;59320;52.316;10.870;2023-01-26T11:44:56;5.80;76.80
70706;DHT22;59320;52.316;10.870;2023-01-26T11:47:41;5.70;76.80
70706;DHT22;59320;52.316;10.870;2023-01-26T11:50:28;5.70;76.70
70706;DHT22;59320;52.316;10.870;2023-01-26T11:53:14;5.70;76.70
70706;DHT22;59320;52.316;10.870;2023-01-26T11:55:57;5.70;76.80
70706;DHT22;59320;52.316;10.870;2023-01-26T11:58:31;5.70;76.80
70706;DHT22;59320;52.316;10.870;2023-01-26T12:01:03;5.80;76.90
70706;DHT22;59320;52.316;10.870;2023-01-26T12:03:38;5.70;76.80
70706;DHT22;59320;52.316;10.870;2023-01-26T12:06:14;5.70;76.90
70706;DHT22;59320;52.316;10.870;2023-01-26T12:08:45;5.70;76.90
70706;DHT22;59320;52.316;10.870;2023-01-26T12:11:18;5.70;76.90
70706;DHT22;59320;52.316;10.870;2023-01-26T12:14:03;5.70;77.00
70706;DHT22;59320;52.316;10.870;2023-01-26T12:16:41;5.70;77.20
70706;DHT22;59320;52.316;10.870;2023-01-26T12:19:14;5.70;77.10
70706;DHT22;59320;52.316;10.870;2023-01-26T12:21:46;5.80;77.10
70706;DHT22;59320;52.316;10.870;2023-01-26T12:24:19;5.70;77.00
70706;DHT22;59320;52.316;10.870;2023-01-26T12:26:50;5.70;77.10
70706;DHT22;59320;52.316;10.870;2023-01-26T12:29:23;5.70;77.10
70706;DHT22;59320;52.316;10.870;2023-01-26T12:31:56;5.70;77.20
70706;DHT22;59320;52.316;10.870;2023-01-26T12:34:28;5.70;77.20
70706;DHT22;59320;52.316;10.870;2023-01-26T12:37:08;5.80;77.20
70706;DHT22;59320;52.316;10.870;2023-01-26T12:39:44;5.70;77.10
70706;DHT22;59320;52.316;10.870;2023-01-26T12:42:18;5.80;77.10
70706;DHT22;59320;52.316;10.870;2023-01-26T12:44:52;5.70;77.20
70706;DHT22;59320;52.316;10.870;2023-01-26T12:47:23;5.70;77.30
70706;DHT22;59320;52.316;10.870;2023-01-26T12:49:57;5.70;77.30
70706;DHT22;59320;52.316;10.870;2023-01-26T12:52:28;5.70;77.30
70706;DHT22;59320;52.316;10.870;2023-01-26T12:55:02;5.80;77.20
70706;DHT22;59320;52.316;10.870;2023-01-26T12:57:34;5.80;76.80
70706;DHT22;59320;52.316;10.870;2023-01-26T13:00:06;5.80;76.90
70706;DHT22;59320;52.316;10.870;2023-01-26T13:02:44;5.80;77.00
70706;DHT22;59320;52.316;10.870;2023-01-26T13:05:25;5.80;77.00
70706;DHT22;59320;52.316;10.870;2023-01-26T13:07:52;5.80;77.20
70706;DHT22;59320;52.316;10.870;2023-01-26T13:10:43;5.80;77.80
70706;DHT22;59320;52.316;10.870;2023-01-26T13:13:29;5.70;77.30
70706;DHT22;59320;52.316;10.870;2023-01-26T13:16:30;5.70;77.20
70706;DHT22;59320;52.316;10.870;2023-01-26T13:18:59;5.70;77.20
70706;DHT22;59320;52.316;10.870;2023-01-26T13:21:41;5.80;77.20
70706;DHT22;59320;52.316;10.870;2023-01-26T13:24:43;5.70;77.30
70706;DHT22;59320;52.316;10.870;2023-01-26T13:27:29;5.80;77.40
70706;DHT22;59320;52.316;10.870;2023-01-26T13:29:57;5.70;77.40
70706;DHT22;59320;52.316;10.870;2023-01-26T13:33:01;5.70;77.30
70706;DHT22;59320;52.316;10.870;2023-01-26T13:35:30;5.70;77.70
70706;DHT22;59320;52.316;10.870;2023-01-26T13:38:06;5.80;77.50
70706;DHT22;59320;52.316;10.870;2023-01-26T13:40:37;5.70;77.60
70706;DHT22;59320;52.316;10.870;2023-01-26T13:43:10;5.80;77.60
70706;DHT22;59320;52.316;10.870;2023-01-26T13:45:44;5.70;77.50
70706;DHT22;59320;52.316;10.870;2023-01-26T13:48:15;5.70;77.60
70706;DHT22;59320;52.316;10.870;2023-01-26T13:50:49;5.80;77.60
70706;DHT22;59320;52.316;10.870;2023-01-26T13:53:32;5.80;77.60
70706;DHT22;59320;52.316;10.870;2023-01-26T13:56:02;5.70;77.70
70706;DHT22;59320;52.316;10.870;2023-01-26T13:58:30;5.80;77.60
70706;DHT22;59320;52.316;10.870;2023-01-26T14:00:58;5.80;77.70
70706;DHT22;59320;52.316;10.870;2023-01-26T14:03:25;5.80;77.60
70706;DHT22;59320;52.316;10.870;2023-01-26T14:05:55;5.80;77.60
70706;DHT22;59320;52.316;10.870;2023-01-26T14:08:23;5.80;77.60
70706;DHT22;59320;52.316;10.870;2023-01-26T14:10:55;5.80;77.60
70706;DHT22;59320;52.316;10.870;2023-01-26T14:13:27;5.80;77.70
70706;DHT22;59320;52.316;10.870;2023-01-26T14:15:58;5.80;77.70
70706;DHT22;59320;52.316;10.870;2023-01-26T14:18:26;5.80;77.70
70706;DHT22;59320;52.316;10.870;2023-01-26T14:21:01;5.80;77.80
70706;DHT22;59320;52.316;10.870;2023-01-26T14:23:33;5.80;77.80
70706;DHT22;59320;52.316;10.870;2023-01-26T14:26:04;5.80;77.80
70706;DHT22;59320;52.316;10.870;2023-01-26T14:28:34;5.80;77.80
70706;DHT22;59320;52.316;10.870;2023-01-26T14:31:04;5.80;77.80
70706;DHT22;59320;52.316;10.870;2023-01-26T14:33:32;5.80;77.90
70706;DHT22;59320;52.316;10.870;2023-01-26T14:36:02;5.80;77.90
70706;DHT22;59320;52.316;10.870;2023-01-26T14:38:30;5.80;77.80
70706;DHT22;59320;52.316;10.870;2023-01-26T14:41:10;5.80;77.80
70706;DHT22;59320;52.316;10.870;2023-01-26T14:43:38;5.80;77.80
70706;DHT22;59320;52.316;10.870;2023-01-26T14:46:09;5.80;77.70
70706;DHT22;59320;52.316;10.870;2023-01-26T14:48:44;5.80;77.70
70706;DHT22;59320;52.316;10.870;2023-01-26T14:51:16;5.80;77.60
70706;DHT22;59320;52.316;10.870;2023-01-26T14:53:48;5.80;77.70
70706;DHT22;59320;52.316;10.870;2023-01-26T14:56:18;5.80;77.90
70706;DHT22;59320;52.316;10.870;2023-01-26T14:58:50;5.80;77.80
70706;DHT22;59320;52.316;10.870;2023-01-26T15:01:22;5.80;77.80
70706;DHT22;59320;52.316;10.870;2023-01-26T15:03:58;5.80;77.80
70706;DHT22;59320;52.316;10.870;2023-01-26T15:06:27;5.80;77.70
70706;DHT22;59320;52.316;10.870;2023-01-26T15:09:00;5.80;77.90
70706;DHT22;59320;52.316;10.870;2023-01-26T15:11:33;5.70;78.10
70706;DHT22;59320;52.316;10.870;2023-01-26T15:14:36;5.80;78.20
70706;DHT22;59320;52.316;10.870;2023-01-26T15:17:04;5.80;78.20
70706;DHT22;59320;52.316;10.870;2023-01-26T15:19:38;5.80;78.00
70706;DHT22;59320;52.316;10.870;2023-01-26T15:22:17;5.80;78.00
70706;DHT22;59320;52.316;10.870;2023-01-26T15:24:46;5.80;78.00
70706;DHT22;59320;52.316;10.870;2023-01-26T15:27:29;5.90;77.90
70706;DHT22;59320;52.316;10.870;2023-01-26T15:29:57;5.80;78.00
70706;DHT22;59320;52.316;10.870;2023-01-26T15:32:27;5.80;78.00
70706;DHT22;59320;52.316;10.870;2023-01-26T15:35:04;5.80;78.00
70706;DHT22;59320;52.316;10.870;2023-01-26T15:37:32;5.80;78.20
70706;DHT22;59320;52.316;10.870;2023-01-26T15:40:00;5.90;78.10
70706;DHT22;59320;52.316;10.870;2023-01-26T15:42:30;5.80;78.10
70706;DHT22;59320;52.316;10.870;2023-01-26T15:44:58;5.80;78.10
70706;DHT22;59320;52.316;10.870;2023-01-26T15:47:25;5.90;78.20
70706;DHT22;59320;52.316;10.870;2023-01-26T15:49:52;5.90;78.20
70706;DHT22;59320;52.316;10.870;2023-01-26T15:52:22;5.90;78.20
70706;DHT22;59320;52.316;10.870;2023-01-26T15:54:50;5.90;78.20
70706;DHT22;59320;52.316;10.870;2023-01-26T15:57:18;5.90;78.10
70706;DHT22;59320;52.316;10.870;2023-01-26T15:59:47;5.90;78.10
70706;DHT22;59320;52.316;10.870;2023-01-26T16:02:15;5.90;78.00